Time;durP1;ratioP1;P1;durP2;ratioP2;P2;SDS_P1;SDS_P2;PMS_P1;PMS_P2;Temp;Humidity;BMP_temperature;BMP_pressure;BME280_temperature;BME280_humidity;BME280_pressure;Samples;Min_cycle;Max_cycle;Signal;HPM_P1;HPM_P2
2023/09/15 00:00:11;;;;;;;11.50;8.30;;;;;;;-128.00;-1.00;-1.00;105544;1254;1004431;-80
2023/09/15 00:02:58;;;;;;;15.30;8.30;;;;;;;-128.00;-1.00;-1.00;105564;1253;1059860;-81
2023/09/15 00:05:26;;;;;;;15.50;8.70;;;;;;;-128.00;-1.00;-1.00;105613;1251;1003857;-80
2023/09/15 00:07:52;;;;;;;11.20;8.80;;;;;;;-128.00;-1.00;-1.00;105624;1251;1003881;-81
2023/09/15 00:10:19;;;;;;;13.00;8.90;;;;;;;-128.00;-1.00;-1.00;105626;1250;1004275;-81
2023/09/15 00:12:46;;;;;;;16.40;8.60;;;;;;;-128.00;-1.00;-1.00;105627;1251;1004658;-81
2023/09/15 00:15:13;;;;;;;15.80;9.50;;;;;;;-128.00;-1.00;-1.00;105628;1250;1004597;-81
2023/09/15 00:17:40;;;;;;;13.50;9.20;;;;;;;-128.00;-1.00;-1.00;105628;1251;1004624;-81
2023/09/15 00:20:13;;;;;;;13.90;8.30;;;;;;;-128.00;-1.00;-1.00;105519;1250;1004908;-83
2023/09/15 00:22:48;;;;;;;10.70;8.60;;;;;;;-128.00;-1.00;-1.00;105621;1250;1062406;-82
2023/09/15 00:25:41;;;;;;;11.70;7.80;;;;;;;-128.00;-1.00;-1.00;105656;1250;1057627;-81
2023/09/15 00:28:09;;;;;;;15.10;7.70;;;;;;;-128.00;-1.00;-1.00;105577;1251;1059236;-81
2023/09/15 00:30:39;;;;;;;19.10;10.70;;;;;;;-128.00;-1.00;-1.00;105597;1251;1005657;-81
2023/09/15 00:33:05;;;;;;;16.70;10.60;;;;;;;-128.00;-1.00;-1.00;105596;1251;1047978;-80
2023/09/15 00:35:31;;;;;;;18.30;12.20;;;;;;;-128.00;-1.00;-1.00;105612;1250;1005588;-80
2023/09/15 00:37:58;;;;;;;19.30;10.90;;;;;;;-128.00;-1.00;-1.00;105598;1250;1004484;-80
2023/09/15 00:40:24;;;;;;;19.70;10.30;;;;;;;-128.00;-1.00;-1.00;105611;1251;1004450;-81
2023/09/15 00:42:51;;;;;;;14.00;11.10;;;;;;;-128.00;-1.00;-1.00;105597;1251;1003814;-80
2023/09/15 00:45:22;;;;;;;19.00;9.40;;;;;;;-128.00;-1.00;-1.00;105504;1254;1003452;-80
2023/09/15 00:47:50;;;;;;;13.70;8.30;;;;;;;-128.00;-1.00;-1.00;105584;1253;1062425;-81
2023/09/15 00:50:21;;;;;;;11.80;8.50;;;;;;;-128.00;-1.00;-1.00;105724;1251;1057653;-80
2023/09/15 00:52:54;;;;;;;14.70;8.10;;;;;;;-128.00;-1.00;-1.00;105522;1249;1058465;-80
2023/09/15 00:55:21;;;;;;;18.40;9.50;;;;;;;-128.00;-1.00;-1.00;105751;1250;1046069;-81
2023/09/15 00:57:52;;;;;;;16.50;10.30;;;;;;;-128.00;-1.00;-1.00;105547;1250;1004801;-81
2023/09/15 01:00:19;;;;;;;15.50;10.10;;;;;;;-128.00;-1.00;-1.00;105616;1250;1062588;-80
2023/09/15 01:02:46;;;;;;;13.50;8.80;;;;;;;-128.00;-1.00;-1.00;105651;1250;1004414;-81
2023/09/15 01:05:19;;;;;;;17.00;10.50;;;;;;;-128.00;-1.00;-1.00;105625;1251;1004511;-80
2023/09/15 01:07:47;;;;;;;13.40;9.30;;;;;;;-128.00;-1.00;-1.00;105578;1251;1046816;-81
2023/09/15 01:10:14;;;;;;;16.40;8.90;;;;;;;-128.00;-1.00;-1.00;105329;1251;1003879;-80
2023/09/15 01:12:41;;;;;;;13.90;8.90;;;;;;;-128.00;-1.00;-1.00;105608;1250;1004514;-80
2023/09/15 01:15:08;;;;;;;22.10;9.90;;;;;;;-128.00;-1.00;-1.00;105428;1251;1003954;-80
2023/09/15 01:17:46;;;;;;;25.40;13.30;;;;;;;-128.00;-1.00;-1.00;105554;1251;1004375;-80
2023/09/15 01:20:17;;;;;;;14.00;9.90;;;;;;;-128.00;-1.00;-1.00;105618;1251;1046110;-81
2023/09/15 01:23:05;;;;;;;16.40;9.50;;;;;;;-128.00;-1.00;-1.00;105632;1251;1047199;-80
2023/09/15 01:25:41;;;;;;;12.70;8.90;;;;;;;-128.00;-1.00;-1.00;105583;1251;1062425;-80
2023/09/15 01:28:42;;;;;;;16.40;8.00;;;;;;;-128.00;-1.00;-1.00;105589;1251;1058503;-80
2023/09/15 01:31:09;;;;;;;12.80;8.50;;;;;;;-128.00;-1.00;-1.00;105577;1250;1058232;-81
2023/09/15 01:33:36;;;;;;;17.40;8.70;;;;;;;-128.00;-1.00;-1.00;105447;1251;1004773;-80
2023/09/15 01:36:03;;;;;;;11.20;8.50;;;;;;;-128.00;-1.00;-1.00;105539;1251;1004843;-81
2023/09/15 01:38:30;;;;;;;16.20;8.70;;;;;;;-128.00;-1.00;-1.00;105622;1251;1004715;-80
2023/09/15 01:40:57;;;;;;;13.30;8.60;;;;;;;-128.00;-1.00;-1.00;105624;1250;1004226;-80
2023/09/15 01:43:23;;;;;;;15.60;8.50;;;;;;;-128.00;-1.00;-1.00;105601;1251;1004007;-80
2023/09/15 01:45:50;;;;;;;20.60;9.90;;;;;;;-128.00;-1.00;-1.00;105620;1250;1004107;-80
2023/09/15 01:48:16;;;;;;;15.70;9.90;;;;;;;-128.00;-1.00;-1.00;105585;1253;1004133;-80
2023/09/15 01:50:42;;;;;;;19.20;10.60;;;;;;;-128.00;-1.00;-1.00;105609;1250;1004662;-80
2023/09/15 01:53:09;;;;;;;15.40;9.80;;;;;;;-128.00;-1.00;-1.00;105759;1249;1003765;-80
2023/09/15 01:55:35;;;;;;;14.00;8.00;;;;;;;-128.00;-1.00;-1.00;105619;1251;1004039;-81
2023/09/15 01:58:02;;;;;;;14.90;9.70;;;;;;;-128.00;-1.00;-1.00;105603;1250;1004554;-80
2023/09/15 02:00:33;;;;;;;12.30;8.30;;;;;;;-128.00;-1.00;-1.00;105656;1254;1004202;-80
2023/09/15 02:03:00;;;;;;;13.30;8.00;;;;;;;-128.00;-1.00;-1.00;105743;1250;1061861;-80
2023/09/15 02:05:27;;;;;;;13.50;8.50;;;;;;;-128.00;-1.00;-1.00;105610;1251;1003793;-80
2023/09/15 02:07:53;;;;;;;11.70;8.30;;;;;;;-128.00;-1.00;-1.00;105610;1251;1003868;-80
2023/09/15 02:10:19;;;;;;;17.60;8.90;;;;;;;-128.00;-1.00;-1.00;105584;1251;1004474;-81
2023/09/15 02:12:46;;;;;;;19.60;9.30;;;;;;;-128.00;-1.00;-1.00;105597;1251;1004496;-80
2023/09/15 02:15:13;;;;;;;14.80;8.90;;;;;;;-128.00;-1.00;-1.00;105615;1251;1004349;-80
2023/09/15 02:17:39;;;;;;;15.20;9.70;;;;;;;-128.00;-1.00;-1.00;105606;1251;1004712;-80
2023/09/15 02:20:11;;;;;;;10.20;8.00;;;;;;;-128.00;-1.00;-1.00;105599;1251;1003820;-80
2023/09/15 02:22:41;;;;;;;9.40;8.10;;;;;;;-128.00;-1.00;-1.00;105610;1251;1046591;-80
2023/09/15 02:25:10;;;;;;;12.20;7.50;;;;;;;-128.00;-1.00;-1.00;105594;1251;1047540;-80
2023/09/15 02:27:40;;;;;;;11.90;8.20;;;;;;;-128.00;-1.00;-1.00;105627;1251;1061293;-80
2023/09/15 02:30:07;;;;;;;14.40;9.00;;;;;;;-128.00;-1.00;-1.00;105608;1251;1058768;-80
2023/09/15 02:32:33;;;;;;;12.30;7.90;;;;;;;-128.00;-1.00;-1.00;105556;1251;1003635;-80
2023/09/15 02:35:00;;;;;;;11.30;8.20;;;;;;;-128.00;-1.00;-1.00;105589;1251;1004066;-80
2023/09/15 02:37:26;;;;;;;13.60;7.70;;;;;;;-128.00;-1.00;-1.00;105596;1251;1003972;-80
2023/09/15 02:39:53;;;;;;;9.70;8.00;;;;;;;-128.00;-1.00;-1.00;105609;1251;1005071;-80
2023/09/15 02:42:19;;;;;;;9.40;7.50;;;;;;;-128.00;-1.00;-1.00;105634;1251;1004789;-80
2023/09/15 02:44:46;;;;;;;19.90;8.20;;;;;;;-128.00;-1.00;-1.00;105623;1251;1004123;-81
2023/09/15 02:47:12;;;;;;;9.50;8.00;;;;;;;-128.00;-1.00;-1.00;105610;1251;1003493;-80
2023/09/15 02:49:39;;;;;;;13.20;8.20;;;;;;;-128.00;-1.00;-1.00;105611;1251;1005256;-80
2023/09/15 02:52:06;;;;;;;12.10;7.80;;;;;;;-128.00;-1.00;-1.00;105613;1251;1006281;-80
2023/09/15 02:54:34;;;;;;;12.90;8.40;;;;;;;-128.00;-1.00;-1.00;105511;1251;1004235;-80
2023/09/15 02:57:00;;;;;;;14.00;8.30;;;;;;;-128.00;-1.00;-1.00;105578;1251;1004726;-80
2023/09/15 02:59:27;;;;;;;12.40;9.10;;;;;;;-128.00;-1.00;-1.00;105590;1251;1004303;-80
2023/09/15 03:01:53;;;;;;;13.80;9.40;;;;;;;-128.00;-1.00;-1.00;105579;1251;1004663;-81
2023/09/15 03:04:20;;;;;;;8.60;7.40;;;;;;;-128.00;-1.00;-1.00;105564;1253;1005389;-80
2023/09/15 03:06:47;;;;;;;11.70;8.50;;;;;;;-128.00;-1.00;-1.00;105557;1253;1004424;-80
2023/09/15 03:09:13;;;;;;;13.50;8.70;;;;;;;-128.00;-1.00;-1.00;105513;1254;1004766;-80
2023/09/15 03:11:40;;;;;;;18.30;10.30;;;;;;;-128.00;-1.00;-1.00;105544;1253;1004647;-80
2023/09/15 03:14:09;;;;;;;14.10;9.20;;;;;;;-128.00;-1.00;-1.00;105538;1254;1005348;-80
2023/09/15 03:16:35;;;;;;;16.70;9.50;;;;;;;-128.00;-1.00;-1.00;105384;1253;1062367;-80
2023/09/15 03:19:03;;;;;;;12.80;9.50;;;;;;;-128.00;-1.00;-1.00;105416;1254;1003480;-80
2023/09/15 03:21:30;;;;;;;14.20;8.80;;;;;;;-128.00;-1.00;-1.00;105402;1253;1004200;-80
2023/09/15 03:23:56;;;;;;;14.50;8.80;;;;;;;-128.00;-1.00;-1.00;105516;1254;1004014;-80
2023/09/15 03:26:23;;;;;;;15.90;9.70;;;;;;;-128.00;-1.00;-1.00;105539;1253;1004119;-80
2023/09/15 03:28:50;;;;;;;15.80;9.30;;;;;;;-128.00;-1.00;-1.00;105542;1252;1004107;-80
2023/09/15 03:31:16;;;;;;;19.40;10.50;;;;;;;-128.00;-1.00;-1.00;105512;1254;1004562;-80
2023/09/15 03:33:43;;;;;;;13.70;9.20;;;;;;;-128.00;-1.00;-1.00;105572;1253;1003895;-80
2023/09/15 03:36:09;;;;;;;14.20;10.40;;;;;;;-128.00;-1.00;-1.00;105538;1254;1004216;-80
2023/09/15 03:38:36;;;;;;;17.10;9.90;;;;;;;-128.00;-1.00;-1.00;105567;1252;1004265;-80
2023/09/15 03:41:04;;;;;;;14.20;8.30;;;;;;;-128.00;-1.00;-1.00;105530;1254;1005458;-80
2023/09/15 03:43:32;;;;;;;14.60;9.80;;;;;;;-128.00;-1.00;-1.00;105587;1255;1004158;-80
2023/09/15 03:45:58;;;;;;;15.20;8.40;;;;;;;-128.00;-1.00;-1.00;105571;1251;1004342;-80
2023/09/15 03:48:25;;;;;;;17.10;10.00;;;;;;;-128.00;-1.00;-1.00;105589;1252;1004100;-80
2023/09/15 03:50:52;;;;;;;20.40;9.60;;;;;;;-128.00;-1.00;-1.00;105639;1251;1004463;-80
2023/09/15 03:53:18;;;;;;;13.10;9.20;;;;;;;-128.00;-1.00;-1.00;105539;1251;1003775;-80
2023/09/15 03:55:45;;;;;;;11.40;9.00;;;;;;;-128.00;-1.00;-1.00;105601;1251;1004465;-81
2023/09/15 03:58:11;;;;;;;11.30;8.80;;;;;;;-128.00;-1.00;-1.00;105592;1251;1004568;-81
2023/09/15 04:00:37;;;;;;;16.20;8.90;;;;;;;-128.00;-1.00;-1.00;105598;1251;1003960;-80
2023/09/15 04:03:04;;;;;;;14.00;10.10;;;;;;;-128.00;-1.00;-1.00;105605;1251;1004282;-80
2023/09/15 04:05:31;;;;;;;12.70;9.60;;;;;;;-128.00;-1.00;-1.00;105626;1251;1003642;-80
2023/09/15 04:07:57;;;;;;;11.70;9.80;;;;;;;-128.00;-1.00;-1.00;105511;1251;1004078;-80
2023/09/15 04:10:24;;;;;;;15.00;10.50;;;;;;;-128.00;-1.00;-1.00;105622;1251;1004848;-80
2023/09/15 04:12:50;;;;;;;19.00;11.10;;;;;;;-128.00;-1.00;-1.00;105641;1251;1005120;-80
2023/09/15 04:15:17;;;;;;;13.80;10.20;;;;;;;-128.00;-1.00;-1.00;105609;1255;1005064;-80
2023/09/15 04:17:43;;;;;;;18.00;11.00;;;;;;;-128.00;-1.00;-1.00;105609;1251;1004652;-81
2023/09/15 04:20:10;;;;;;;16.50;10.40;;;;;;;-128.00;-1.00;-1.00;105576;1251;1003816;-80
2023/09/15 04:22:37;;;;;;;16.20;11.00;;;;;;;-128.00;-1.00;-1.00;105596;1252;1004178;-80
2023/09/15 04:25:05;;;;;;;15.50;9.70;;;;;;;-128.00;-1.00;-1.00;105590;1251;1004011;-80
2023/09/15 04:27:32;;;;;;;17.00;10.50;;;;;;;-128.00;-1.00;-1.00;105607;1251;1004351;-80
2023/09/15 04:29:59;;;;;;;17.50;10.70;;;;;;;-128.00;-1.00;-1.00;105613;1251;1003837;-80
2023/09/15 04:32:26;;;;;;;16.40;10.20;;;;;;;-128.00;-1.00;-1.00;105505;1251;1004895;-80
2023/09/15 04:34:52;;;;;;;19.00;10.40;;;;;;;-128.00;-1.00;-1.00;105601;1251;1004973;-80
2023/09/15 04:37:19;;;;;;;15.50;12.30;;;;;;;-128.00;-1.00;-1.00;105601;1251;1004326;-80
2023/09/15 04:39:49;;;;;;;34.50;29.00;;;;;;;-128.00;-1.00;-1.00;105628;1250;1004639;-81
2023/09/15 04:42:15;;;;;;;24.80;20.50;;;;;;;-128.00;-1.00;-1.00;105621;1251;1062183;-81
2023/09/15 04:44:42;;;;;;;18.40;13.90;;;;;;;-128.00;-1.00;-1.00;105610;1251;1004690;-80
2023/09/15 04:47:11;;;;;;;19.90;13.60;;;;;;;-128.00;-1.00;-1.00;105592;1251;1004419;-80
2023/09/15 04:49:37;;;;;;;;;;;;;;;-128.00;-1.00;-1.00;105637;1252;1046927;-80
2023/09/15 04:52:05;;;;;;;21.10;14.30;;;;;;;-128.00;-1.00;-1.00;105722;1251;1004304;-80
2023/09/15 04:54:31;;;;;;;25.10;18.50;;;;;;;-128.00;-1.00;-1.00;105712;1254;1003745;-80
2023/09/15 04:56:58;;;;;;;22.00;17.30;;;;;;;-128.00;-1.00;-1.00;105704;1251;1005086;-80
2023/09/15 04:59:25;;;;;;;24.50;16.90;;;;;;;-128.00;-1.00;-1.00;105685;1251;1004765;-80
2023/09/15 05:01:51;;;;;;;21.50;15.90;;;;;;;-128.00;-1.00;-1.00;105547;1252;1004932;-80
2023/09/15 05:04:19;;;;;;;23.20;16.50;;;;;;;-128.00;-1.00;-1.00;105576;1251;1004533;-80
2023/09/15 05:06:46;;;;;;;20.40;14.40;;;;;;;-128.00;-1.00;-1.00;105497;1254;1003786;-80
2023/09/15 05:09:18;;;;;;;19.00;14.40;;;;;;;-128.00;-1.00;-1.00;105624;1250;1004495;-80
2023/09/15 05:11:44;;;;;;;22.30;16.50;;;;;;;-128.00;-1.00;-1.00;105593;1251;1060145;-80
2023/09/15 05:14:10;;;;;;;22.50;16.70;;;;;;;-128.00;-1.00;-1.00;105566;1256;1004709;-80
2023/09/15 05:16:37;;;;;;;24.40;16.20;;;;;;;-128.00;-1.00;-1.00;105640;1251;1004590;-80
2023/09/15 05:19:03;;;;;;;20.10;14.10;;;;;;;-128.00;-1.00;-1.00;105605;1251;1003885;-80
2023/09/15 05:21:30;;;;;;;24.30;16.80;;;;;;;-128.00;-1.00;-1.00;105608;1251;1003965;-80
2023/09/15 05:23:56;;;;;;;28.80;18.90;;;;;;;-128.00;-1.00;-1.00;105577;1251;1003881;-80
2023/09/15 05:26:23;;;;;;;29.10;19.20;;;;;;;-128.00;-1.00;-1.00;105511;1254;1004952;-80
2023/09/15 05:28:49;;;;;;;30.10;19.40;;;;;;;-128.00;-1.00;-1.00;105572;1251;1004455;-80
2023/09/15 05:31:17;;;;;;;29.80;18.20;;;;;;;-128.00;-1.00;-1.00;105576;1250;1004703;-81
2023/09/15 05:33:44;;;;;;;25.80;18.00;;;;;;;-128.00;-1.00;-1.00;105601;1251;1003805;-80
2023/09/15 05:36:10;;;;;;;29.70;18.50;;;;;;;-128.00;-1.00;-1.00;105580;1251;1003973;-80
2023/09/15 05:38:36;;;;;;;25.90;18.60;;;;;;;-128.00;-1.00;-1.00;105593;1251;1003272;-80
2023/09/15 05:41:03;;;;;;;25.80;18.40;;;;;;;-128.00;-1.00;-1.00;105624;1251;1004859;-80
2023/09/15 05:43:29;;;;;;;26.10;18.10;;;;;;;-128.00;-1.00;-1.00;105597;1251;1003732;-80
2023/09/15 05:45:56;;;;;;;26.60;18.70;;;;;;;-128.00;-1.00;-1.00;105607;1251;1004095;-80
2023/09/15 05:48:26;;;;;;;29.40;20.60;;;;;;;-128.00;-1.00;-1.00;105562;1251;1003785;-80
2023/09/15 05:50:53;;;;;;;26.00;19.50;;;;;;;-128.00;-1.00;-1.00;105510;1251;1045754;-80
2023/09/15 05:53:19;;;;;;;31.40;19.80;;;;;;;-128.00;-1.00;-1.00;105564;1251;1003742;-80
2023/09/15 05:55:45;;;;;;;23.80;18.60;;;;;;;-128.00;-1.00;-1.00;105539;1251;1004056;-80
2023/09/15 05:58:13;;;;;;;20.40;14.60;;;;;;;-128.00;-1.00;-1.00;105562;1250;1003783;-80
2023/09/15 06:00:41;;;;;;;21.80;15.10;;;;;;;-128.00;-1.00;-1.00;105637;1256;1005191;-81
2023/09/15 06:03:08;;;;;;;20.20;14.00;;;;;;;-128.00;-1.00;-1.00;105570;1251;1003449;-81
2023/09/15 06:05:35;;;;;;;22.00;14.10;;;;;;;-128.00;-1.00;-1.00;105522;1254;1004319;-81
2023/09/15 06:08:03;;;;;;;21.50;14.90;;;;;;;-128.00;-1.00;-1.00;105593;1251;1004528;-80
2023/09/15 06:10:29;;;;;;;18.00;13.50;;;;;;;-128.00;-1.00;-1.00;105504;1256;1004269;-80
2023/09/15 06:12:56;;;;;;;19.60;14.50;;;;;;;-128.00;-1.00;-1.00;105504;1251;1003894;-80
2023/09/15 06:15:23;;;;;;;16.40;14.10;;;;;;;-128.00;-1.00;-1.00;105450;1255;1004286;-81
2023/09/15 06:17:50;;;;;;;21.00;13.10;;;;;;;-128.00;-1.00;-1.00;105325;1254;1004985;-81
2023/09/15 06:20:16;;;;;;;17.70;13.80;;;;;;;-128.00;-1.00;-1.00;105454;1252;1004767;-81
2023/09/15 06:22:43;;;;;;;22.90;13.90;;;;;;;-128.00;-1.00;-1.00;105509;1251;1005015;-80
2023/09/15 06:25:10;;;;;;;20.70;13.60;;;;;;;-128.00;-1.00;-1.00;105484;1254;1004462;-81
2023/09/15 06:27:36;;;;;;;17.40;13.50;;;;;;;-128.00;-1.00;-1.00;105537;1253;1004170;-80
2023/09/15 06:30:03;;;;;;;21.90;13.90;;;;;;;-128.00;-1.00;-1.00;105517;1251;1005379;-80
2023/09/15 06:32:30;;;;;;;20.80;14.50;;;;;;;-128.00;-1.00;-1.00;105558;1251;1004298;-80
2023/09/15 06:34:57;;;;;;;20.00;15.50;;;;;;;-128.00;-1.00;-1.00;105479;1252;1003831;-80
2023/09/15 06:37:24;;;;;;;19.60;14.70;;;;;;;-128.00;-1.00;-1.00;105475;1254;1003831;-81
2023/09/15 06:39:51;;;;;;;22.30;15.50;;;;;;;-128.00;-1.00;-1.00;105557;1251;1003586;-81
2023/09/15 06:42:17;;;;;;;21.60;15.60;;;;;;;-128.00;-1.00;-1.00;105555;1255;1004043;-81
2023/09/15 06:44:44;;;;;;;24.50;17.90;;;;;;;-128.00;-1.00;-1.00;105521;1251;1004527;-81
2023/09/15 06:47:10;;;;;;;20.30;15.40;;;;;;;-128.00;-1.00;-1.00;105533;1251;1004874;-81
2023/09/15 06:49:37;;;;;;;21.50;15.20;;;;;;;-128.00;-1.00;-1.00;105477;1252;1004560;-81
2023/09/15 06:52:04;;;;;;;24.40;18.30;;;;;;;-128.00;-1.00;-1.00;105470;1254;1003798;-81
2023/09/15 06:54:30;;;;;;;20.00;14.40;;;;;;;-128.00;-1.00;-1.00;105481;1251;1004937;-81
2023/09/15 06:56:56;;;;;;;16.60;13.20;;;;;;;-128.00;-1.00;-1.00;105515;1254;1004955;-81
2023/09/15 06:59:23;;;;;;;18.00;12.30;;;;;;;-128.00;-1.00;-1.00;105508;1251;1003912;-81
2023/09/15 07:01:49;;;;;;;15.20;11.60;;;;;;;-128.00;-1.00;-1.00;105541;1251;1003629;-81
2023/09/15 07:04:16;;;;;;;24.50;14.70;;;;;;;-128.00;-1.00;-1.00;105568;1251;1005105;-81
2023/09/15 07:06:42;;;;;;;19.20;12.00;;;;;;;-128.00;-1.00;-1.00;105521;1251;1004925;-81
2023/09/15 07:09:09;;;;;;;16.40;10.00;;;;;;;-128.00;-1.00;-1.00;105567;1251;1006278;-81
2023/09/15 07:11:35;;;;;;;9.60;8.60;;;;;;;-128.00;-1.00;-1.00;105515;1251;1004260;-81
2023/09/15 07:14:02;;;;;;;11.00;7.40;;;;;;;-128.00;-1.00;-1.00;105460;1251;1003513;-81
2023/09/15 07:16:28;;;;;;;12.30;7.60;;;;;;;-128.00;-1.00;-1.00;105437;1256;1004761;-81
2023/09/15 07:18:55;;;;;;;10.70;7.40;;;;;;;-128.00;-1.00;-1.00;105512;1251;1004546;-80
2023/09/15 07:21:21;;;;;;;7.40;6.10;;;;;;;-128.00;-1.00;-1.00;105560;1256;1005060;-81
2023/09/15 07:23:47;;;;;;;8.30;6.30;;;;;;;-128.00;-1.00;-1.00;105531;1251;1004295;-81
2023/09/15 07:26:14;;;;;;;8.70;5.40;;;;;;;-128.00;-1.00;-1.00;105492;1251;1004562;-81
2023/09/15 07:28:41;;;;;;;9.00;5.90;;;;;;;-128.00;-1.00;-1.00;105535;1252;1004903;-81
2023/09/15 07:31:09;;;;;;;12.40;6.10;;;;;;;-128.00;-1.00;-1.00;105518;1255;1004488;-81
2023/09/15 07:33:35;;;;;;;6.80;5.90;;;;;;;-128.00;-1.00;-1.00;105526;1253;1004753;-81
2023/09/15 07:36:04;;;;;;;16.30;9.80;;;;;;;-128.00;-1.00;-1.00;105590;1251;1004755;-81
2023/09/15 07:38:31;;;;;;;10.40;7.20;;;;;;;-128.00;-1.00;-1.00;105461;1254;1003732;-81
2023/09/15 07:40:58;;;;;;;5.90;5.00;;;;;;;-128.00;-1.00;-1.00;105575;1251;1003389;-82
2023/09/15 07:43:26;;;;;;;9.20;4.70;;;;;;;-128.00;-1.00;-1.00;105402;1253;1004975;-82
2023/09/15 07:45:52;;;;;;;17.90;5.80;;;;;;;-128.00;-1.00;-1.00;105519;1251;1004096;-82
2023/09/15 07:48:19;;;;;;;27.10;6.40;;;;;;;-128.00;-1.00;-1.00;105552;1250;1004219;-82
2023/09/15 07:50:45;;;;;;;5.70;4.00;;;;;;;-128.00;-1.00;-1.00;105520;1253;1005392;-82
2023/09/15 07:53:11;;;;;;;7.40;4.30;;;;;;;-128.00;-1.00;-1.00;105566;1251;1004950;-82
2023/09/15 07:55:38;;;;;;;4.30;3.60;;;;;;;-128.00;-1.00;-1.00;105530;1254;1005404;-82
2023/09/15 07:58:04;;;;;;;6.60;3.70;;;;;;;-128.00;-1.00;-1.00;105604;1251;1004757;-82
2023/09/15 08:00:31;;;;;;;9.20;3.90;;;;;;;-128.00;-1.00;-1.00;105497;1255;1004145;-82
2023/09/15 08:02:57;;;;;;;13.90;4.60;;;;;;;-128.00;-1.00;-1.00;105591;1251;1004352;-82
2023/09/15 08:05:24;;;;;;;4.50;3.20;;;;;;;-128.00;-1.00;-1.00;105528;1254;1004285;-82
2023/09/15 08:07:51;;;;;;;3.90;2.70;;;;;;;-128.00;-1.00;-1.00;105450;1253;1003613;-82
2023/09/15 08:10:19;;;;;;;4.20;2.80;;;;;;;-128.00;-1.00;-1.00;105572;1251;1004548;-82
2023/09/15 08:12:48;;;;;;;4.50;3.00;;;;;;;-128.00;-1.00;-1.00;105627;1251;1004296;-83
2023/09/15 08:15:16;;;;;;;3.20;2.80;;;;;;;-128.00;-1.00;-1.00;105573;1251;1058214;-83
2023/09/15 08:17:43;;;;;;;;;;;;;;;-128.00;-1.00;-1.00;105586;1251;1004809;-82
2023/09/15 08:20:11;;;;;;;13.30;3.20;;;;;;;-128.00;-1.00;-1.00;105540;1254;1004743;-83
2023/09/15 08:22:40;;;;;;;;;;;;;;;-128.00;-1.00;-1.00;105593;1251;1004403;-82
2023/09/15 08:25:07;;;;;;;5.20;2.30;;;;;;;-128.00;-1.00;-1.00;105591;1251;1058022;-82
2023/09/15 08:27:35;;;;;;;7.60;2.80;;;;;;;-128.00;-1.00;-1.00;105588;1251;1004936;-82
2023/09/15 08:30:01;;;;;;;5.60;2.70;;;;;;;-128.00;-1.00;-1.00;105612;1251;1004448;-82
2023/09/15 08:32:28;;;;;;;3.60;2.40;;;;;;;-128.00;-1.00;-1.00;105408;1251;1004064;-81
2023/09/15 08:34:54;;;;;;;3.70;3.00;;;;;;;-128.00;-1.00;-1.00;105610;1251;1003872;-82
2023/09/15 08:37:21;;;;;;;3.60;2.00;;;;;;;-128.00;-1.00;-1.00;105650;1251;1005184;-82
2023/09/15 08:39:47;;;;;;;2.30;1.80;;;;;;;-128.00;-1.00;-1.00;105609;1251;1004113;-82
2023/09/15 08:42:17;;;;;;;2.70;1.70;;;;;;;-128.00;-1.00;-1.00;105578;1251;1004463;-82
2023/09/15 08:44:44;;;;;;;5.00;1.90;;;;;;;-128.00;-1.00;-1.00;105594;1251;1047198;-82
2023/09/15 08:47:10;;;;;;;3.50;1.60;;;;;;;-128.00;-1.00;-1.00;105551;1251;1004000;-82
2023/09/15 08:49:37;;;;;;;4.40;2.20;;;;;;;-128.00;-1.00;-1.00;105629;1251;1005141;-81
2023/09/15 08:52:04;;;;;;;3.20;1.70;;;;;;;-128.00;-1.00;-1.00;105654;1250;1003363;-81
2023/09/15 08:54:31;;;;;;;3.60;2.40;;;;;;;-128.00;-1.00;-1.00;105725;1250;1004366;-81
2023/09/15 08:56:58;;;;;;;8.80;2.40;;;;;;;-128.00;-1.00;-1.00;105638;1251;1003512;-81
2023/09/15 08:59:24;;;;;;;5.90;2.30;;;;;;;-128.00;-1.00;-1.00;105614;1251;1004561;-82
2023/09/15 09:01:51;;;;;;;4.20;1.60;;;;;;;-128.00;-1.00;-1.00;105626;1250;1004844;-81
2023/09/15 09:04:18;;;;;;;3.30;2.50;;;;;;;-128.00;-1.00;-1.00;105554;1251;1004970;-80
2023/09/15 09:06:45;;;;;;;3.40;1.70;;;;;;;-128.00;-1.00;-1.00;105653;1251;1004166;-82
2023/09/15 09:09:13;;;;;;;3.30;1.70;;;;;;;-128.00;-1.00;-1.00;105469;1251;1003948;-81
2023/09/15 09:11:40;;;;;;;8.10;2.40;;;;;;;-128.00;-1.00;-1.00;105501;1253;1062341;-81
2023/09/15 09:14:11;;;;;;;7.70;2.10;;;;;;;-128.00;-1.00;-1.00;105591;1251;1004341;-81
2023/09/15 09:16:38;;;;;;;4.60;2.10;;;;;;;-128.00;-1.00;-1.00;105650;1251;1058459;-81
2023/09/15 09:19:06;;;;;;;3.30;1.90;;;;;;;-128.00;-1.00;-1.00;105502;1253;1004169;-81
2023/09/15 09:21:34;;;;;;;3.50;2.20;;;;;;;-128.00;-1.00;-1.00;105606;1251;1004489;-81
2023/09/15 09:24:01;;;;;;;4.20;2.30;;;;;;;-128.00;-1.00;-1.00;105615;1254;1004276;-81
2023/09/15 09:26:27;;;;;;;2.90;1.90;;;;;;;-128.00;-1.00;-1.00;105658;1251;1004269;-81
2023/09/15 09:28:57;;;;;;;3.00;2.10;;;;;;;-128.00;-1.00;-1.00;105604;1251;1004012;-81
2023/09/15 09:31:25;;;;;;;5.50;2.20;;;;;;;-128.00;-1.00;-1.00;105614;1250;1045149;-81
2023/09/15 09:33:53;;;;;;;5.00;1.80;;;;;;;-128.00;-1.00;-1.00;105596;1251;1004160;-81
2023/09/15 09:36:19;;;;;;;2.90;2.10;;;;;;;-128.00;-1.00;-1.00;105621;1251;1004765;-81
2023/09/15 09:38:47;;;;;;;4.30;2.40;;;;;;;-128.00;-1.00;-1.00;105632;1251;1004521;-81
2023/09/15 09:41:15;;;;;;;7.70;2.90;;;;;;;-128.00;-1.00;-1.00;105670;1251;1003769;-81
2023/09/15 09:43:46;;;;;;;3.00;2.00;;;;;;;-128.00;-1.00;-1.00;105665;1251;1004886;-80
2023/09/15 09:46:14;;;;;;;3.70;2.40;;;;;;;-128.00;-1.00;-1.00;105620;1251;1046524;-81
2023/09/15 09:48:41;;;;;;;2.90;2.00;;;;;;;-128.00;-1.00;-1.00;105610;1251;1003761;-81
2023/09/15 09:51:08;;;;;;;2.90;2.20;;;;;;;-128.00;-1.00;-1.00;105514;1251;1004643;-81
2023/09/15 09:53:35;;;;;;;3.60;2.10;;;;;;;-128.00;-1.00;-1.00;105570;1251;1004660;-82
2023/09/15 09:56:03;;;;;;;3.90;2.10;;;;;;;-128.00;-1.00;-1.00;105611;1252;1004208;-81
2023/09/15 09:58:34;;;;;;;5.40;2.10;;;;;;;-128.00;-1.00;-1.00;105496;1251;1004202;-81
2023/09/15 10:01:00;;;;;;;2.90;1.90;;;;;;;-128.00;-1.00;-1.00;105573;1250;1062205;-80
2023/09/15 10:03:27;;;;;;;5.40;2.30;;;;;;;-128.00;-1.00;-1.00;105483;1254;1004172;-81
2023/09/15 10:05:53;;;;;;;9.80;2.70;;;;;;;-128.00;-1.00;-1.00;105684;1255;1004093;-81
2023/09/15 10:08:20;;;;;;;4.90;2.20;;;;;;;-128.00;-1.00;-1.00;105742;1251;1004118;-81
2023/09/15 10:10:49;;;;;;;12.30;2.80;;;;;;;-128.00;-1.00;-1.00;105604;1251;1004390;-81
2023/09/15 10:13:16;;;;;;;5.80;2.50;;;;;;;-128.00;-1.00;-1.00;105737;1251;1061572;-81
2023/09/15 10:15:44;;;;;;;8.60;2.70;;;;;;;-128.00;-1.00;-1.00;105599;1251;1005008;-81
2023/09/15 10:18:12;;;;;;;3.60;2.00;;;;;;;-128.00;-1.00;-1.00;105626;1251;1004034;-81
2023/09/15 10:20:40;;;;;;;3.70;1.90;;;;;;;-128.00;-1.00;-1.00;105626;1251;1004358;-82
2023/09/15 10:23:07;;;;;;;4.00;2.30;;;;;;;-128.00;-1.00;-1.00;105739;1251;1004126;-81
2023/09/15 10:25:41;;;;;;;2.40;1.80;;;;;;;-128.00;-1.00;-1.00;105473;1250;1005181;-81
2023/09/15 10:28:11;;;;;;;3.70;1.80;;;;;;;-128.00;-1.00;-1.00;105652;1251;1058049;-80
2023/09/15 10:30:38;;;;;;;4.10;1.80;;;;;;;-128.00;-1.00;-1.00;105332;1251;1060699;-80
2023/09/15 10:33:06;;;;;;;4.50;1.80;;;;;;;-128.00;-1.00;-1.00;105444;1251;1004409;-81
2023/09/15 10:35:33;;;;;;;4.00;2.30;;;;;;;-128.00;-1.00;-1.00;105572;1251;1004844;-81
2023/09/15 10:38:03;;;;;;;8.60;1.80;;;;;;;-128.00;-1.00;-1.00;105624;1251;1004112;-80
2023/09/15 10:40:46;;;;;;;3.30;2.10;;;;;;;-128.00;-1.00;-1.00;105599;1251;1057901;-80
2023/09/15 10:43:12;;;;;;;4.10;2.20;;;;;;;-128.00;-1.00;-1.00;105507;1251;1058415;-80
2023/09/15 10:45:39;;;;;;;3.50;2.20;;;;;;;-128.00;-1.00;-1.00;105589;1251;1004257;-81
2023/09/15 10:48:06;;;;;;;5.40;2.50;;;;;;;-128.00;-1.00;-1.00;105548;1251;1003845;-80
2023/09/15 10:50:37;;;;;;;5.70;2.30;;;;;;;-128.00;-1.00;-1.00;105581;1251;1004356;-81
2023/09/15 10:53:10;;;;;;;7.70;3.10;;;;;;;-128.00;-1.00;-1.00;105597;1251;1058510;-81
2023/09/15 10:55:37;;;;;;;5.30;1.50;;;;;;;-128.00;-1.00;-1.00;105453;1251;1059275;-81
2023/09/15 10:58:04;;;;;;;4.20;2.20;;;;;;;-128.00;-1.00;-1.00;105591;1250;1003573;-81
2023/09/15 11:00:31;;;;;;;6.30;2.10;;;;;;;-128.00;-1.00;-1.00;105609;1251;1003799;-81
2023/09/15 11:02:57;;;;;;;2.60;1.60;;;;;;;-128.00;-1.00;-1.00;105556;1250;1005342;-81
2023/09/15 11:05:27;;;;;;;4.10;1.90;;;;;;;-128.00;-1.00;-1.00;105379;1253;1004539;-81
2023/09/15 11:07:57;;;;;;;9.40;2.90;;;;;;;-128.00;-1.00;-1.00;105669;1250;1059672;-81
2023/09/15 11:10:32;;;;;;;6.40;3.00;;;;;;;-128.00;-1.00;-1.00;105342;1253;1044527;-81